Time;durP1;ratioP1;P1;durP2;ratioP2;P2;SDS_P1;SDS_P2;PMS_P1;PMS_P2;Temp;Humidity;BMP_temperature;BMP_pressure;BME280_temperature;BME280_humidity;BME280_pressure;Samples;Min_cycle;Max_cycle;Signal;HPM_P1;HPM_P2
2022/03/07 00:01:29;;;;;;;23.33;21.40;;;-0.80;99.90;;;;;;4989725;28;20463;-72
2022/03/07 00:03:56;;;;;;;23.70;21.70;;;-0.80;99.90;;;;;;4993122;28;20476;-71
2022/03/07 00:06:24;;;;;;;23.30;21.50;;;-0.80;99.90;;;;;;4995697;28;20466;-70
2022/03/07 00:08:53;;;;;;;23.97;21.77;;;-0.80;99.90;;;;;;5003680;28;20464;-71
2022/03/07 00:11:20;;;;;;;24.00;22.10;;;-0.90;99.90;;;;;;5004514;28;20466;-70
2022/03/07 00:13:47;;;;;;;23.73;21.53;;;-0.90;99.90;;;;;;5000820;28;20493;-70
2022/03/07 00:16:15;;;;;;;23.90;22.00;;;-0.90;99.90;;;;;;4997837;28;20455;-71
2022/03/07 00:18:42;;;;;;;25.00;22.80;;;-1.00;99.90;;;;;;5001764;28;20468;-70
2022/03/07 00:21:10;;;;;;;23.10;21.27;;;-1.00;99.90;;;;;;5002156;28;20460;-73
2022/03/07 00:23:37;;;;;;;22.83;21.03;;;-1.00;99.90;;;;;;4996860;28;20500;-72
2022/03/07 00:26:07;;;;;;;24.20;22.10;;;-1.00;99.90;;;;;;5002542;28;20489;-72
2022/03/07 00:28:34;;;;;;;23.20;21.47;;;-1.10;99.90;;;;;;4997972;28;20565;-71
2022/03/07 00:31:01;;;;;;;25.67;23.47;;;-1.20;99.90;;;;;;5000397;28;20470;-73
2022/03/07 00:33:28;;;;;;;24.00;22.00;;;-1.20;99.90;;;;;;4998782;28;20493;-72
2022/03/07 00:35:55;;;;;;;23.47;21.57;;;-1.20;99.90;;;;;;5003185;28;20995;-71
2022/03/07 00:38:24;;;;;;;23.10;21.30;;;-1.20;99.90;;;;;;5000543;28;20470;-72
2022/03/07 00:40:51;;;;;;;23.27;21.40;;;-1.30;99.90;;;;;;4999808;28;20476;-73
2022/03/07 00:43:21;;;;;;;23.17;21.13;;;-1.30;99.90;;;;;;4998858;28;20485;-71
2022/03/07 00:45:49;;;;;;;24.57;22.57;;;-1.40;99.90;;;;;;5001294;28;20468;-72
2022/03/07 00:48:16;;;;;;;24.17;22.17;;;-1.30;99.90;;;;;;5002825;28;20469;-71
2022/03/07 00:50:45;;;;;;;25.00;22.70;;;-1.40;99.90;;;;;;4998818;28;20550;-70
2022/03/07 00:53:12;;;;;;;25.00;22.50;;;-1.40;99.90;;;;;;4999597;28;20496;-72
2022/03/07 00:55:39;;;;;;;25.13;22.93;;;-1.40;99.90;;;;;;5005018;28;20575;-72
2022/03/07 00:58:07;;;;;;;24.47;22.37;;;-1.30;99.90;;;;;;4998716;28;20480;-72
2022/03/07 01:00:38;;;;;;;25.30;23.20;;;-1.30;99.90;;;;;;4999392;28;20476;-72
2022/03/07 01:03:05;;;;;;;26.27;24.10;;;-1.20;99.90;;;;;;5002488;28;20468;-70
2022/03/07 01:05:32;;;;;;;23.13;21.10;;;-1.10;99.90;;;;;;4997364;28;20469;-70
2022/03/07 01:07:59;;;;;;;25.17;22.93;;;-1.10;99.90;;;;;;4997234;28;20475;-72
2022/03/07 01:10:27;;;;;;;24.90;22.60;;;-1.00;99.90;;;;;;5006316;28;20458;-71
2022/03/07 01:12:55;;;;;;;24.10;22.03;;;-1.00;99.90;;;;;;5003634;28;20488;-72
2022/03/07 01:15:22;;;;;;;22.90;21.03;;;-1.00;99.90;;;;;;5004003;28;20469;-72
2022/03/07 01:17:53;;;;;;;24.90;22.77;;;-0.90;99.90;;;;;;5003433;28;20549;-73
2022/03/07 01:20:20;;;;;;;24.57;22.47;;;-0.90;99.90;;;;;;4995081;28;20480;-73
2022/03/07 01:22:48;;;;;;;23.73;21.63;;;-0.90;99.90;;;;;;4998745;28;20492;-71
2022/03/07 01:25:14;;;;;;;24.57;22.37;;;-0.90;99.90;;;;;;5000109;28;21017;-71
2022/03/07 01:27:42;;;;;;;23.97;22.00;;;-0.90;99.90;;;;;;5000213;28;20470;-71
2022/03/07 01:30:10;;;;;;;24.53;22.33;;;-0.90;99.90;;;;;;5001521;28;20530;-73
2022/03/07 01:32:37;;;;;;;25.30;23.00;;;-0.90;99.90;;;;;;4996868;28;20988;-71
2022/03/07 01:35:06;;;;;;;23.40;21.30;;;-0.90;99.90;;;;;;5003139;28;20496;-71
2022/03/07 01:37:33;;;;;;;23.97;21.67;;;-0.90;99.90;;;;;;4997749;28;20492;-72
2022/03/07 01:40:00;;;;;;;24.20;22.00;;;-0.90;99.90;;;;;;5000928;28;20464;-71
2022/03/07 01:42:27;;;;;;;25.10;23.00;;;-1.00;99.90;;;;;;4999278;28;20476;-73
2022/03/07 01:44:55;;;;;;;25.70;23.40;;;-1.00;99.90;;;;;;5000211;28;20468;-70
2022/03/07 01:47:23;;;;;;;25.67;23.27;;;-1.10;99.90;;;;;;4998055;28;20472;-71
2022/03/07 01:49:52;;;;;;;25.03;22.93;;;;;;;;;;4995437;28;20965;-72
2022/03/07 01:52:21;;;;;;;24.57;22.57;;;-1.10;99.90;;;;;;5002546;28;20488;-71
2022/03/07 01:54:49;;;;;;;25.17;22.57;;;-1.10;99.90;;;;;;5006215;28;20495;-71
2022/03/07 01:57:16;;;;;;;23.73;21.73;;;-1.10;99.90;;;;;;5000199;28;20468;-72
2022/03/07 01:59:45;;;;;;;24.87;22.47;;;-1.20;99.90;;;;;;4998057;28;20898;-71
2022/03/07 02:02:12;;;;;;;24.37;22.57;;;-1.20;99.90;;;;;;4995909;28;20474;-70
2022/03/07 02:04:40;;;;;;;24.23;22.10;;;-1.20;99.90;;;;;;5001566;28;21106;-70
2022/03/07 02:07:07;;;;;;;25.37;23.13;;;-1.20;99.90;;;;;;5004254;28;20466;-71
2022/03/07 02:09:35;;;;;;;26.50;24.17;;;-1.20;99.90;;;;;;4996871;28;20480;-73
2022/03/07 02:12:02;;;;;;;25.33;23.13;;;-1.30;99.90;;;;;;4991577;28;20495;-70
2022/03/07 02:14:30;;;;;;;25.47;23.30;;;-1.30;99.90;;;;;;5000496;28;20497;-72
2022/03/07 02:16:57;;;;;;;27.10;24.70;;;-1.40;99.90;;;;;;4995270;28;20960;-72
2022/03/07 02:19:25;;;;;;;26.53;24.33;;;-1.40;99.90;;;;;;4996088;28;20540;-73
2022/03/07 02:22:00;;;;;;;25.67;23.53;;;-1.50;99.90;;;;;;5002518;28;20472;-73
2022/03/07 02:24:28;;;;;;;26.53;23.70;;;-1.50;99.90;;;;;;5002377;28;20841;-72
2022/03/07 02:27:00;;;;;;;26.37;24.00;;;-1.50;99.90;;;;;;5004473;28;20597;-72
2022/03/07 02:29:27;;;;;;;26.87;24.40;;;-1.50;99.90;;;;;;5002525;28;20465;-71
2022/03/07 02:31:55;;;;;;;25.77;23.43;;;-1.50;99.90;;;;;;5010499;28;20465;-73
2022/03/07 02:34:21;;;;;;;26.80;24.07;;;-1.60;99.90;;;;;;5002200;28;20496;-71
2022/03/07 02:36:50;;;;;;;25.23;23.00;;;-1.60;99.90;;;;;;5002843;28;21019;-72
2022/03/07 02:39:18;;;;;;;26.43;23.90;;;-1.70;99.90;;;;;;5003746;28;20468;-72
2022/03/07 02:41:46;;;;;;;28.47;25.57;;;-1.70;99.90;;;;;;5007393;28;21055;-71
2022/03/07 02:44:14;;;;;;;26.90;24.57;;;-1.80;99.90;;;;;;5006984;28;20942;-71
2022/03/07 02:46:42;;;;;;;25.13;22.93;;;-1.80;99.90;;;;;;5000738;28;20509;-71
2022/03/07 02:49:09;;;;;;;25.77;23.57;;;-1.80;99.90;;;;;;5000667;28;20465;-72
2022/03/07 02:51:37;;;;;;;26.23;23.77;;;-1.80;99.90;;;;;;5003824;28;20463;-71
2022/03/07 02:54:04;;;;;;;26.87;24.10;;;-1.80;99.90;;;;;;5002270;28;20492;-73
2022/03/07 02:56:34;;;;;;;25.27;23.20;;;-1.90;99.90;;;;;;5004697;28;20914;-72
2022/03/07 02:59:01;;;;;;;26.87;24.03;;;-1.80;99.90;;;;;;4999792;28;20827;-71
2022/03/07 03:01:27;;;;;;;26.93;24.57;;;-1.80;99.90;;;;;;5006426;28;20491;-72
2022/03/07 03:03:54;;;;;;;34.27;25.63;;;-1.80;99.90;;;;;;5002805;28;20469;-73
2022/03/07 03:06:21;;;;;;;26.63;24.13;;;-1.80;99.90;;;;;;4996383;28;20472;-72
2022/03/07 03:08:48;;;;;;;27.50;24.87;;;-1.90;99.90;;;;;;5000867;28;20465;-73
2022/03/07 03:11:15;;;;;;;28.10;25.40;;;-1.90;99.90;;;;;;5002049;28;20465;-71
2022/03/07 03:13:45;;;;;;;27.83;25.37;;;-1.80;99.90;;;;;;4997759;28;20522;-72
2022/03/07 03:16:12;;;;;;;27.43;24.90;;;-1.80;99.90;;;;;;5014869;28;20819;-74
2022/03/07 03:18:39;;;;;;;27.20;24.70;;;-1.80;99.90;;;;;;5004045;28;20464;-73
2022/03/07 03:21:07;;;;;;;26.87;24.47;;;-1.70;99.90;;;;;;4998409;28;20468;-71
2022/03/07 03:23:34;;;;;;;29.43;23.20;;;-1.80;99.90;;;;;;5000696;28;20561;-70
2022/03/07 03:26:01;;;;;;;29.70;26.70;;;-1.80;99.90;;;;;;5007461;28;20481;-72
2022/03/07 03:28:28;;;;;;;27.90;25.13;;;-1.80;99.90;;;;;;5002387;28;20465;-71
2022/03/07 03:30:57;;;;;;;27.07;24.47;;;-1.70;99.90;;;;;;5005503;28;20456;-73
2022/03/07 03:33:24;;;;;;;30.23;27.17;;;-1.70;99.90;;;;;;5005482;28;20488;-72
2022/03/07 03:35:51;;;;;;;27.90;25.40;;;-1.60;99.90;;;;;;4997381;28;20504;-72
2022/03/07 03:38:17;;;;;;;27.83;25.00;;;-1.60;99.90;;;;;;5006764;28;20504;-72
2022/03/07 03:40:45;;;;;;;27.77;25.10;;;-1.60;99.90;;;;;;5004079;28;20933;-72
2022/03/07 03:43:12;;;;;;;28.33;25.30;;;-1.60;99.90;;;;;;5000293;28;20479;-73
2022/03/07 03:45:39;;;;;;;28.10;25.03;;;-1.70;99.90;;;;;;5001648;28;20465;-73
2022/03/07 03:48:08;;;;;;;29.43;26.17;;;-1.70;99.90;;;;;;5004169;28;20586;-74
2022/03/07 03:50:35;;;;;;;28.00;25.20;;;-1.70;99.90;;;;;;4997229;28;20482;-72
2022/03/07 03:53:02;;;;;;;26.97;24.63;;;-1.70;99.90;;;;;;5004338;28;20469;-73
2022/03/07 03:55:29;;;;;;;27.93;25.03;;;-1.70;99.90;;;;;;4999052;28;20497;-73
2022/03/07 03:57:56;;;;;;;29.97;26.87;;;-1.80;99.90;;;;;;5001593;28;20475;-70
2022/03/07 04:00:23;;;;;;;28.27;25.57;;;-1.80;99.90;;;;;;5004056;28;20587;-71
2022/03/07 04:02:51;;;;;;;28.47;25.80;;;-1.80;99.90;;;;;;5006440;28;20485;-74
2022/03/07 04:05:19;;;;;;;27.37;24.77;;;-1.80;99.90;;;;;;5008132;28;20477;-73
2022/03/07 04:07:46;;;;;;;27.77;25.20;;;-1.80;99.90;;;;;;4997875;28;21132;-73
2022/03/07 04:10:14;;;;;;;28.57;25.53;;;-1.80;99.90;;;;;;4998224;28;20472;-74
2022/03/07 04:12:42;;;;;;;25.13;22.97;;;-1.80;99.90;;;;;;5003155;28;20466;-73
2022/03/07 04:15:09;;;;;;;27.33;24.63;;;-1.80;99.90;;;;;;4998884;28;20509;-72
2022/03/07 04:17:40;;;;;;;27.50;24.60;;;-1.80;99.90;;;;;;5004864;28;21196;-75
2022/03/07 04:20:09;;;;;;;26.43;24.00;;;-1.80;99.90;;;;;;5000445;28;21003;-73
2022/03/07 04:22:38;;;;;;;25.20;22.90;;;-1.90;99.90;;;;;;5003471;28;20465;-73
2022/03/07 04:25:06;;;;;;;33.43;25.17;;;-1.90;99.90;;;;;;4999980;28;20465;-73
2022/03/07 04:27:33;;;;;;;27.80;24.90;;;-1.80;99.90;;;;;;5003110;28;20487;-72
2022/03/07 04:30:03;;;;;;;26.17;23.87;;;-1.80;99.90;;;;;;5002490;28;20460;-74
2022/03/07 04:32:30;;;;;;;27.20;24.80;;;-1.90;99.90;;;;;;5003094;28;20547;-75
2022/03/07 04:34:57;;;;;;;26.23;23.73;;;-1.90;99.90;;;;;;5000274;28;20503;-73
2022/03/07 04:37:25;;;;;;;27.20;24.50;;;-1.90;99.90;;;;;;4999809;28;20490;-73
2022/03/07 04:39:53;;;;;;;27.90;25.17;;;-1.80;99.90;;;;;;5002009;28;21041;-72
2022/03/07 04:42:21;;;;;;;29.70;26.37;;;-1.90;99.90;;;;;;4996018;28;20497;-72
2022/03/07 04:44:48;;;;;;;27.67;24.83;;;-1.90;99.90;;;;;;5005882;28;20468;-73
2022/03/07 04:47:15;;;;;;;26.93;24.13;;;-1.90;99.90;;;;;;5008454;28;20572;-73
2022/03/07 04:49:43;;;;;;;29.33;26.03;;;-2.00;99.90;;;;;;5002544;28;20475;-74
2022/03/07 04:52:10;;;;;;;28.60;25.87;;;-1.90;99.90;;;;;;4996164;28;20465;-73
2022/03/07 04:54:38;;;;;;;27.20;24.67;;;-1.90;99.90;;;;;;4996242;28;20496;-73
2022/03/07 04:57:07;;;;;;;28.80;25.90;;;-1.90;99.90;;;;;;5004621;28;20469;-74
2022/03/07 04:59:34;;;;;;;30.50;27.60;;;-1.90;99.90;;;;;;4989501;28;20502;-72
2022/03/07 05:02:00;;;;;;;29.67;26.50;;;-1.80;99.90;;;;;;4987619;28;20933;-73
2022/03/07 05:04:27;;;;;;;29.20;26.27;;;-1.90;99.90;;;;;;4970115;28;20957;-72
2022/03/07 05:06:54;;;;;;;28.17;25.00;;;-1.90;99.90;;;;;;4972994;28;20469;-75
2022/03/07 05:09:21;;;;;;;29.07;26.40;;;-1.90;99.90;;;;;;4972111;28;20474;-72
2022/03/07 05:11:48;;;;;;;29.70;26.60;;;-1.90;99.90;;;;;;4973862;28;20517;-72
2022/03/07 05:14:18;;;;;;;28.87;26.10;;;-1.90;99.90;;;;;;4972447;28;21012;-70
2022/03/07 05:16:44;;;;;;;30.60;27.30;;;-1.90;99.90;;;;;;4973907;28;20468;-73
2022/03/07 05:19:11;;;;;;;29.20;26.43;;;-1.90;99.90;;;;;;4973376;28;20480;-73
2022/03/07 05:21:38;;;;;;;29.90;27.20;;;-2.00;99.90;;;;;;4973117;28;20523;-71
2022/03/07 05:24:06;;;;;;;29.17;26.17;;;-2.00;99.90;;;;;;4973222;28;21250;-73
2022/03/07 05:26:34;;;;;;;29.77;26.97;;;-2.00;99.90;;;;;;4972856;28;20496;-73
2022/03/07 05:29:00;;;;;;;34.20;26.70;;;-2.00;99.90;;;;;;4972672;28;21269;-72
2022/03/07 05:31:29;;;;;;;29.83;27.23;;;-2.00;99.90;;;;;;4972411;28;20465;-73
2022/03/07 05:33:56;;;;;;;30.07;27.13;;;-2.00;99.90;;;;;;4972479;28;20587;-73
2022/03/07 05:36:24;;;;;;;28.50;25.90;;;-2.00;99.90;;;;;;4973304;28;20527;-71
2022/03/07 05:38:51;;;;;;;28.27;25.50;;;-1.90;99.90;;;;;;4972558;28;20528;-72
2022/03/07 05:41:18;;;;;;;33.37;26.03;;;-1.90;99.90;;;;;;4973099;28;20473;-72
2022/03/07 05:43:44;;;;;;;29.43;26.70;;;-1.80;99.90;;;;;;4973650;28;20480;-73
2022/03/07 05:46:11;;;;;;;31.40;28.10;;;-1.80;99.90;;;;;;4972046;28;20471;-73
2022/03/07 05:48:39;;;;;;;28.43;25.23;;;-1.70;99.90;;;;;;4972595;28;20477;-74
2022/03/07 05:51:06;;;;;;;30.60;27.23;;;-1.80;99.90;;;;;;4972551;28;20556;-71
2022/03/07 05:53:33;;;;;;;28.33;23.27;;;-1.80;99.90;;;;;;4972627;28;20480;-72
2022/03/07 05:56:00;;;;;;;28.90;26.10;;;-1.70;99.90;;;;;;4972730;28;20619;-73
2022/03/07 05:58:27;;;;;;;28.50;25.90;;;-1.80;99.90;;;;;;4973235;28;20476;-70
2022/03/07 06:00:54;;;;;;;28.47;25.63;;;-1.70;99.90;;;;;;4972866;28;20488;-72
2022/03/07 06:03:24;;;;;;;30.17;27.07;;;-1.80;99.90;;;;;;4971759;28;20466;-72
2022/03/07 06:05:52;;;;;;;28.10;25.50;;;-1.70;99.90;;;;;;4970505;28;20767;-71
2022/03/07 06:08:19;;;;;;;27.93;25.37;;;-1.80;99.90;;;;;;4971892;28;20476;-72
2022/03/07 06:10:46;;;;;;;28.50;26.00;;;-1.80;99.90;;;;;;4971721;28;20481;-70
2022/03/07 06:13:13;;;;;;;30.00;27.17;;;-1.80;99.90;;;;;;4972305;28;20484;-74
2022/03/07 06:15:43;;;;;;;29.10;26.40;;;-1.80;99.90;;;;;;4970585;28;20511;-72
2022/03/07 06:18:11;;;;;;;29.80;27.00;;;-1.90;99.90;;;;;;4971101;28;20567;-71
2022/03/07 06:20:39;;;;;;;30.57;27.20;;;-2.00;99.90;;;;;;4970692;28;20474;-71
2022/03/07 06:23:08;;;;;;;30.73;27.80;;;-2.10;99.90;;;;;;4971643;28;20475;-73
2022/03/07 06:25:35;;;;;;;28.63;26.23;;;-2.10;99.90;;;;;;4970874;28;20457;-72
2022/03/07 06:28:03;;;;;;;28.17;25.70;;;-2.20;99.90;;;;;;4972469;28;20948;-71
2022/03/07 06:30:31;;;;;;;27.87;25.53;;;-2.20;99.90;;;;;;4970292;28;20451;-72
2022/03/07 06:32:57;;;;;;;28.03;25.50;;;-2.20;99.90;;;;;;4971234;28;20474;-71
2022/03/07 06:35:24;;;;;;;28.27;25.47;;;-2.20;99.90;;;;;;4971068;28;21097;-71
2022/03/07 06:37:53;;;;;;;31.40;28.30;;;-2.20;99.90;;;;;;4970717;28;20484;-72
2022/03/07 06:40:23;;;;;;;29.20;26.50;;;-2.20;99.90;;;;;;4972009;28;20524;-72
2022/03/07 06:42:50;;;;;;;28.83;26.10;;;-2.30;99.90;;;;;;4972245;28;20500;-73
2022/03/07 06:45:18;;;;;;;29.17;26.73;;;-2.20;99.90;;;;;;4972635;28;20479;-72
2022/03/07 06:47:46;;;;;;;27.97;25.37;;;-2.10;99.90;;;;;;4971272;28;20470;-72
2022/03/07 06:50:14;;;;;;;26.00;23.77;;;-1.90;99.90;;;;;;4968067;28;20478;-72
2022/03/07 06:52:41;;;;;;;26.37;24.17;;;-1.80;99.90;;;;;;4970563;28;20465;-73
2022/03/07 06:55:09;;;;;;;27.90;25.40;;;-1.60;99.90;;;;;;4971341;28;20503;-71
2022/03/07 06:57:37;;;;;;;27.17;24.63;;;-1.50;99.90;;;;;;4970545;28;20460;-71
2022/03/07 07:00:06;;;;;;;27.43;24.93;;;-1.40;99.90;;;;;;4968050;28;20461;-73
2022/03/07 07:02:33;;;;;;;26.70;24.40;;;-1.30;99.90;;;;;;4970600;28;20675;-71
2022/03/07 07:05:02;;;;;;;25.67;23.50;;;-1.20;99.90;;;;;;4970341;28;20997;-71
2022/03/07 07:07:29;;;;;;;24.47;22.40;;;-1.10;99.90;;;;;;4970447;28;20955;-70
2022/03/07 07:09:56;;;;;;;26.50;24.00;;;-1.00;99.90;;;;;;4969296;28;20462;-72
2022/03/07 07:12:23;;;;;;;24.47;22.50;;;-0.90;99.90;;;;;;4970515;28;21035;-72
2022/03/07 07:14:51;;;;;;;24.97;23.03;;;-0.80;99.90;;;;;;4972285;28;20478;-73
2022/03/07 07:17:18;;;;;;;24.03;22.10;;;-0.80;99.90;;;;;;4973281;28;20471;-71
2022/03/07 07:19:45;;;;;;;25.10;23.07;;;-0.70;99.90;;;;;;4973981;28;20490;-71
2022/03/07 07:22:12;;;;;;;23.53;21.40;;;-0.70;99.90;;;;;;4974153;28;20461;-72
2022/03/07 07:24:39;;;;;;;25.13;23.03;;;-0.60;99.90;;;;;;4971493;28;20469;-74
2022/03/07 07:27:06;;;;;;;23.53;21.67;;;-0.50;99.90;;;;;;4965319;28;20482;-73
2022/03/07 07:29:33;;;;;;;24.00;21.90;;;-0.30;99.90;;;;;;4967553;28;20516;-72
2022/03/07 07:32:02;;;;;;;23.03;21.00;;;-0.10;99.90;;;;;;4969184;28;20640;-72
2022/03/07 07:34:29;;;;;;;23.43;21.57;;;0.00;99.90;;;;;;4967682;28;20554;-73
2022/03/07 07:36:56;;;;;;;23.53;21.27;;;0.20;99.90;;;;;;4965345;28;20500;-73
2022/03/07 07:39:23;;;;;;;24.20;22.30;;;0.30;99.90;;;;;;4967994;28;20473;-72
2022/03/07 07:41:50;;;;;;;24.60;22.70;;;0.30;99.90;;;;;;4967841;28;20465;-75
2022/03/07 07:44:17;;;;;;;22.83;21.10;;;0.50;99.90;;;;;;4975107;28;20473;-73
2022/03/07 07:46:44;;;;;;;23.80;21.80;;;0.50;99.90;;;;;;4966131;28;20590;-74
2022/03/07 07:49:12;;;;;;;21.20;19.80;;;0.70;99.90;;;;;;4966701;28;20472;-74
2022/03/07 07:51:39;;;;;;;21.13;19.73;;;0.80;99.90;;;;;;4967229;28;20654;-73
2022/03/07 07:54:06;;;;;;;23.53;21.93;;;1.00;99.90;;;;;;4968984;28;21576;-73
2022/03/07 07:56:33;;;;;;;22.70;20.70;;;1.10;99.90;;;;;;4969129;28;20905;-71
2022/03/07 07:59:01;;;;;;;22.97;21.17;;;1.20;99.90;;;;;;4969589;28;21259;-74
2022/03/07 08:01:29;;;;;;;21.73;20.13;;;1.40;99.90;;;;;;4968250;28;20474;-72
2022/03/07 08:03:56;;;;;;;23.60;21.90;;;1.40;99.90;;;;;;4970182;28;20586;-73
2022/03/07 08:06:25;;;;;;;24.03;22.23;;;1.70;99.90;;;;;;4968993;28;20465;-73
2022/03/07 08:08:52;;;;;;;24.03;22.37;;;1.80;99.90;;;;;;4970674;28;20481;-73
2022/03/07 08:11:19;;;;;;;24.00;22.10;;;1.90;99.90;;;;;;4970049;28;20473;-71
2022/03/07 08:13:46;;;;;;;24.03;22.20;;;2.00;99.90;;;;;;4970325;28;20461;-73
2022/03/07 08:16:17;;;;;;;24.37;22.53;;;2.10;99.90;;;;;;4970460;28;20500;-73
2022/03/07 08:18:44;;;;;;;26.07;23.80;;;2.30;99.90;;;;;;4981603;28;21217;-74
2022/03/07 08:21:11;;;;;;;23.80;21.67;;;2.40;99.90;;;;;;4967437;28;21512;-72
2022/03/07 08:23:40;;;;;;;24.93;22.60;;;2.60;99.90;;;;;;4987320;28;20481;-73
2022/03/07 08:26:06;;;;;;;23.97;22.37;;;2.80;99.90;;;;;;4983538;28;20505;-73
2022/03/07 08:28:36;;;;;;;24.50;22.70;;;2.90;99.90;;;;;;4968887;28;20474;-73
2022/03/07 08:31:04;;;;;;;23.00;21.40;;;3.00;99.90;;;;;;4967617;28;20473;-73
2022/03/07 08:33:32;;;;;;;22.67;21.17;;;3.00;99.90;;;;;;4968062;28;20526;-72
2022/03/07 08:35:58;;;;;;;23.10;21.40;;;3.10;99.90;;;;;;4965612;28;21176;-72
2022/03/07 08:38:27;;;;;;;22.00;20.50;;;3.20;99.90;;;;;;4967708;28;20553;-74
2022/03/07 08:40:56;;;;;;;23.13;21.37;;;3.20;99.90;;;;;;4968341;28;20500;-73
2022/03/07 08:43:22;;;;;;;22.40;20.80;;;3.30;99.90;;;;;;4969822;28;20611;-71
2022/03/07 08:45:50;;;;;;;23.17;21.20;;;3.50;99.90;;;;;;4996094;28;20472;-73
2022/03/07 08:48:17;;;;;;;22.83;21.07;;;3.50;99.90;;;;;;4994854;28;20462;-72
2022/03/07 08:50:48;;;;;;;21.93;20.43;;;3.60;99.90;;;;;;4969893;28;20471;-71
2022/03/07 08:53:16;;;;;;;22.83;21.27;;;3.70;99.90;;;;;;4966814;28;20452;-73
2022/03/07 08:55:43;;;;;;;22.10;20.60;;;3.80;99.90;;;;;;4966457;28;20709;-74
2022/03/07 08:58:14;;;;;;;20.63;19.43;;;3.90;99.90;;;;;;4967265;28;21012;-73
2022/03/07 09:00:41;;;;;;;21.60;20.20;;;4.10;99.90;;;;;;4967099;28;20982;-73
2022/03/07 09:03:11;;;;;;;22.10;20.33;;;4.20;99.90;;;;;;4967767;28;20933;-72
2022/03/07 09:05:40;;;;;;;21.30;20.10;;;4.20;99.90;;;;;;4966769;28;20470;-75
2022/03/07 09:08:07;;;;;;;21.93;20.60;;;4.30;99.90;;;;;;4965657;28;21295;-73
2022/03/07 09:10:34;;;;;;;21.57;20.27;;;4.00;98.70;;;;;;4967835;28;20467;-74
2022/03/07 09:13:01;;;;;;;22.07;20.77;;;4.00;98.50;;;;;;4977614;28;20462;-73
2022/03/07 09:15:29;;;;;;;22.57;21.10;;;4.10;98.70;;;;;;4997152;28;20464;-75
2022/03/07 09:17:57;;;;;;;22.80;21.40;;;4.30;99.10;;;;;;4967419;28;20827;-73
2022/03/07 09:20:24;;;;;;;20.93;19.50;;;4.50;99.90;;;;;;4967063;28;20470;-73
2022/03/07 09:22:51;;;;;;;22.57;21.27;;;4.70;99.90;;;;;;4966802;28;20457;-72
2022/03/07 09:25:18;;;;;;;21.27;19.90;;;4.90;99.50;;;;;;4966205;28;20935;-72
2022/03/07 09:27:46;;;;;;;21.90;20.40;;;5.10;97.30;;;;;;4966169;28;20483;-74
2022/03/07 09:30:15;;;;;;;21.93;20.10;;;5.10;97.60;;;;;;4966824;28;20473;-72
2022/03/07 09:32:43;;;;;;;22.60;21.20;;;5.30;97.40;;;;;;4965152;28;21564;-72
2022/03/07 09:35:11;;;;;;;22.37;20.87;;;5.20;96.70;;;;;;4966126;28;20462;-73
2022/03/07 09:37:38;;;;;;;22.20;20.90;;;5.20;96.20;;;;;;4966540;28;20505;-73
2022/03/07 09:40:06;;;;;;;21.57;20.30;;;5.20;96.50;;;;;;4966843;28;21063;-72
2022/03/07 09:42:37;;;;;;;21.87;20.47;;;5.30;96.10;;;;;;4965856;28;20531;-76
2022/03/07 09:45:05;;;;;;;22.07;20.67;;;5.40;96.50;;;;;;4965322;28;20832;-74
2022/03/07 09:47:37;;;;;;;21.93;20.53;;;5.30;95.50;;;;;;4964954;28;20480;-73
2022/03/07 09:50:10;;;;;;;21.67;20.40;;;5.30;95.50;;;;;;4966057;28;20529;-73
2022/03/07 09:52:39;;;;;;;21.23;20.03;;;5.40;95.70;;;;;;4964646;28;20589;-73
2022/03/07 09:55:09;;;;;;;20.57;19.20;;;5.60;95.80;;;;;;4966036;28;20537;-74
2022/03/07 09:57:36;;;;;;;21.70;20.10;;;5.40;95.10;;;;;;4966904;28;20490;-73
2022/03/07 10:00:05;;;;;;;21.33;19.63;;;5.50;94.50;;;;;;4965420;28;20997;-72
2022/03/07 10:02:34;;;;;;;21.93;20.63;;;5.80;94.70;;;;;;4966521;28;20462;-74
2022/03/07 10:05:02;;;;;;;22.60;21.07;;;5.70;94.10;;;;;;4965937;28;20475;-74
2022/03/07 10:07:31;;;;;;;21.13;19.93;;;6.00;94.80;;;;;;4966620;28;20476;-74
2022/03/07 10:10:05;;;;;;;21.20;19.90;;;6.50;93.60;;;;;;4965222;28;20537;-73
2022/03/07 10:12:32;;;;;;;20.33;18.97;;;7.50;94.10;;;;;;4963587;28;21381;-74
2022/03/07 10:15:10;;;;;;;21.20;19.90;;;8.10;91.10;;;;;;4963695;28;20887;-73
2022/03/07 10:17:40;;;;;;;21.93;20.43;;;8.50;85.70;;;;;;4963958;28;20505;-73
2022/03/07 10:20:09;;;;;;;22.10;20.00;;;9.00;86.90;;;;;;4965286;28;20467;-73
2022/03/07 10:22:45;;;;;;;21.27;19.90;;;9.70;83.90;;;;;;4963826;28;20486;-74
2022/03/07 10:25:12;;;;;;;21.47;20.27;;;10.30;78.90;;;;;;4964582;28;20533;-74
2022/03/07 10:27:41;;;;;;;21.17;19.67;;;9.70;74.80;;;;;;4963473;28;20988;-74
2022/03/07 10:30:10;;;;;;;21.33;20.13;;;8.80;76.70;;;;;;4964516;28;20579;-74
2022/03/07 10:32:37;;;;;;;20.90;19.80;;;8.50;75.90;;;;;;4964130;28;20623;-73
2022/03/07 10:35:05;;;;;;;21.20;20.00;;;8.80;78.10;;;;;;4964439;28;20461;-74
2022/03/07 10:37:34;;;;;;;21.17;19.90;;;9.70;77.50;;;;;;4964282;28;21119;-74
2022/03/07 10:40:08;;;;;;;21.57;19.97;;;9.40;72.80;;;;;;4965466;28;20493;-74
2022/03/07 10:42:36;;;;;;;21.27;20.07;;;9.80;75.40;;;;;;4965639;28;20473;-72
2022/03/07 10:45:05;;;;;;;21.20;19.90;;;10.20;70.90;;;;;;4965458;28;20474;-73
2022/03/07 10:47:32;;;;;;;21.67;20.47;;;9.60;70.20;;;;;;4963915;28;21001;-73
2022/03/07 10:50:01;;;;;;;21.43;20.23;;;10.20;72.70;;;;;;4965052;28;21006;-73
2022/03/07 10:52:38;;;;;;;20.93;19.83;;;10.90;67.40;;;;;;4965988;28;20549;-73
2022/03/07 10:55:08;;;;;;;20.20;18.90;;;10.80;66.60;;;;;;4968550;28;21352;-73
2022/03/07 10:57:37;;;;;;;21.90;20.30;;;9.80;66.50;;;;;;4968298;28;21548;-75
2022/03/07 11:00:07;;;;;;;21.30;20.00;;;9.40;69.70;;;;;;4968600;28;20462;-72
2022/03/07 11:02:40;;;;;;;20.47;19.33;;;10.00;68.60;;;;;;4968405;28;21043;-72
2022/03/07 11:05:08;;;;;;;21.47;19.97;;;10.70;68.80;;;;;;4968018;28;20471;-76
2022/03/07 11:07:37;;;;;;;21.50;20.20;;;11.30;64.30;;;;;;4968393;28;20468;-72
2022/03/07 11:10:08;;;;;;;22.10;20.80;;;10.70;63.70;;;;;;4969006;28;20461;-73
2022/03/07 11:12:35;;;;;;;21.00;19.70;;;10.70;63.70;;;;;;4967341;28;20532;-71
2022/03/07 11:15:08;;;;;;;20.17;18.97;;;11.20;64.40;;;;;;4989006;28;20569;-74
2022/03/07 11:17:38;;;;;;;21.07;19.87;;;11.50;63.50;;;;;;4967751;28;21056;-73
2022/03/07 11:20:06;;;;;;;20.03;18.93;;;12.00;63.40;;;;;;4967787;28;21134;-73
2022/03/07 11:22:33;;;;;;;21.03;19.73;;;13.10;61.60;;;;;;4968269;28;20470;-73
2022/03/07 11:25:02;;;;;;;20.30;19.20;;;14.00;58.90;;;;;;4968124;28;21043;-73
2022/03/07 11:27:30;;;;;;;20.17;19.07;;;13.80;56.80;;;;;;4967578;28;20489;-73
2022/03/07 11:29:57;;;;;;;22.37;20.37;;;13.90;55.60;;;;;;4968515;28;20482;-72
2022/03/07 11:32:25;;;;;;;20.80;19.63;;;14.80;56.30;;;;;;4966772;28;20457;-74
2022/03/07 11:34:54;;;;;;;20.73;19.53;;;13.90;54.00;;;;;;4967025;28;20474;-73
2022/03/07 11:37:22;;;;;;;20.60;19.50;;;13.20;52.30;;;;;;4966848;28;20507;-72
2022/03/07 11:39:50;;;;;;;20.13;19.03;;;11.90;52.70;;;;;;4967558;28;20843;-75
2022/03/07 11:42:19;;;;;;;21.00;19.50;;;11.10;56.20;;;;;;4967923;28;20470;-73
2022/03/07 11:44:49;;;;;;;20.30;19.10;;;11.50;55.60;;;;;;4967037;28;20480;-73
2022/03/07 11:47:18;;;;;;;21.00;19.63;;;12.10;56.70;;;;;;4993175;28;20470;-73
2022/03/07 11:49:46;;;;;;;20.87;19.53;;;12.30;54.60;;;;;;4970700;28;21068;-73
2022/03/07 11:52:16;;;;;;;21.07;19.77;;;12.60;55.30;;;;;;4967171;28;22317;-72
2022/03/07 11:54:52;;;;;;;20.70;19.60;;;13.00;55.10;;;;;;4974763;28;20477;-72
2022/03/07 11:57:19;;;;;;;19.83;18.73;;;13.60;53.10;;;;;;4994629;28;20502;-75
2022/03/07 11:59:47;;;;;;;19.70;18.60;;;13.70;53.40;;;;;;4993943;28;20464;-73
2022/03/07 12:02:15;;;;;;;18.93;17.87;;;13.40;50.80;;;;;;4995402;28;20833;-74
2022/03/07 12:04:44;;;;;;;20.03;18.83;;;13.20;52.50;;;;;;4975348;28;21633;-74
2022/03/07 12:07:11;;;;;;;20.30;19.20;;;13.70;52.30;;;;;;4966891;28;20462;-74
2022/03/07 12:09:40;;;;;;;20.67;19.47;;;13.20;51.50;;;;;;4967228;28;20470;-73
2022/03/07 12:12:11;;;;;;;19.80;18.70;;;13.10;51.50;;;;;;4966663;28;20917;-76
2022/03/07 12:14:40;;;;;;;20.57;19.10;;;12.60;51.20;;;;;;4966359;28;20628;-73
2022/03/07 12:17:14;;;;;;;20.63;18.90;;;13.00;53.00;;;;;;4993906;28;20965;-76
2022/03/07 12:19:41;;;;;;;19.17;18.17;;;13.40;52.60;;;;;;4998116;28;20832;-74
2022/03/07 12:22:13;;;;;;;19.23;18.23;;;13.80;52.10;;;;;;4968081;28;20546;-73
2022/03/07 12:24:41;;;;;;;19.57;17.83;;;14.00;50.60;;;;;;4966644;28;20458;-72
2022/03/07 12:27:09;;;;;;;20.83;19.73;;;13.10;50.30;;;;;;4966409;28;20498;-75
2022/03/07 12:29:40;;;;;;;20.53;19.33;;;13.30;50.90;;;;;;4967099;28;20467;-73
2022/03/07 12:32:08;;;;;;;19.20;18.20;;;14.00;51.50;;;;;;4966215;28;21409;-72
2022/03/07 12:34:39;;;;;;;21.07;19.70;;;14.30;49.80;;;;;;4965791;28;21172;-73